Terminal Aerodrome Forecast
Issued by NWS

Home | Current Version | Previous Version | Text Only | Print | Product List | Glossary On
Versions: 1 2 3 4 5 6 7 8 9 10 11 12 13 14 15 16 17
000
FTUS41 KBGM 302320
TAFRME
TAF
KRME 302320Z 0100/0124 09005KT P6SM -SHRA OVC060
      TEMPO 0102/0105 4SM -SHRA OVC025
     FM010500 10006KT P6SM OVC030
      TEMPO 0105/0109 4SM -SHRA OVC015
     FM011500 11010G20KT P6SM OVC025 PROB30 0115/0117 4SM -SHRA
      OVC015
     FM011700 11010KT P6SM OVC035 PROB30 0117/0123 4SM -SHRA OVC025
     FM012300 11009KT 4SM -SHRA OVC030=

USA.gov is the U.S. government's official web portal to all federal, state and local government web resources and services.